KMVN/MVN METAR and TAF weather

Enter ICAO airport designator
Station Type Date Time Source
KMVN METAR 2019/04/19 08:56 UTC NOAA

KMVN 190856Z AUTO VRB03KT 10SM -RA OVC013 07/06 A2969 RMK AO2 SLP056 P0001 60002 T00670056 55002


Station Type Date Time Source
KMVN Decoded METAR 2019/04/19 08:56 UTC NOAA

Mount Vernon, Mount Vernon Airport, IL, United States (KMVN) 38-19N 088-52W
Apr 19, 2019 - 04:56 AM EDT / 2019.04.19 0856 UTC
Wind: Variable at 3 MPH (3 KT):0
Visibility: 10 mile(s):0
Sky conditions: overcast
Weather: light rain
Precipitation last hour: 0.01 inches
Temperature: 44.1 F (6.7 C)
Dew Point: 42.1 F (5.6 C)
Relative Humidity: 92%
Pressure (altimeter): 29.69 in. Hg (1005 hPa)
Pressure tendency: 0.01 inches (0.2 hPa) lower than three hours ago
ob: KMVN 190856Z AUTO VRB03KT 10SM -RA OVC013 07/06 A2969 RMK AO2 SLP056 P0001 60002 T00670056 55002
cycle: 9

Station Type Date Time Source
KMVN TAF 2019/04/19 09:48 UTC NOAA

TAF KMVN 190847Z 1909/2006 36011KT P6SM -SHRA OVC012
FM191100 35013KT P6SM VCSH OVC012
FM191800 36015G25KT P6SM -SHRA OVC018
FM200000 36012KT P6SM VCSH OVC035
FM200300 35015G23KT P6SM BKN050

Example: see airport list